East Stroudsburg, Pennsylvania
Current Conditions -  °F | °C
As of 7:22 AM on Monday 24 Nov 2014 (Local Time) from KMPO Reporting Station
Light Rain Light Rain  
Wind Chill: 58°   Ceiling: 500
Heat Index: 58°   Visibility: 10mi
Dew Point: 56°   Wind: 16mph
Humidity: 93%   Direction: 210°SSW
Pressure: 29.63"   Gusts: 32mph
Location:  40.99°N, 75.18°W
Report Text: KMPO 241222Z AUTO 21014G28KT 10SM -RA OVC005 14/13 A2963 RMK AO2 PK WND 21032/1206 CIG 004V010 P0002 T01440133
Loading
Personal Weather Stations






























Interactive Weather Map New forecast layout! Learn more

10-Day Weather Forecast

Advertisements
Track Severe Weather on mobile